sensor_id;sensor_type;location;lat;lon;timestamp;P1;durP1;ratioP1;P2;durP2;ratioP2
9789;SDS011;4934;50.852;8.098;2022-09-06T00:01:25;5.63;;;2.72;;
9789;SDS011;4934;50.852;8.098;2022-09-06T00:03:51;8.48;;;2.97;;
9789;SDS011;4934;50.852;8.098;2022-09-06T00:06:18;4.82;;;2.90;;
9789;SDS011;4934;50.852;8.098;2022-09-06T00:08:45;3.80;;;3.17;;
9789;SDS011;4934;50.852;8.098;2022-09-06T00:11:12;3.38;;;2.65;;
9789;SDS011;4934;50.852;8.098;2022-09-06T00:13:38;5.38;;;2.90;;
9789;SDS011;4934;50.852;8.098;2022-09-06T00:16:05;4.45;;;2.83;;
9789;SDS011;4934;50.852;8.098;2022-09-06T00:18:35;4.70;;;2.88;;
9789;SDS011;4934;50.852;8.098;2022-09-06T00:21:01;5.40;;;3.42;;
9789;SDS011;4934;50.852;8.098;2022-09-06T00:23:28;3.35;;;2.90;;
9789;SDS011;4934;50.852;8.098;2022-09-06T00:26:01;3.58;;;2.97;;
9789;SDS011;4934;50.852;8.098;2022-09-06T00:28:28;4.50;;;2.80;;
9789;SDS011;4934;50.852;8.098;2022-09-06T00:30:54;5.18;;;2.67;;
9789;SDS011;4934;50.852;8.098;2022-09-06T00:33:19;7.30;;;2.92;;
9789;SDS011;4934;50.852;8.098;2022-09-06T00:35:45;6.35;;;2.90;;
9789;SDS011;4934;50.852;8.098;2022-09-06T00:38:11;4.20;;;3.50;;
9789;SDS011;4934;50.852;8.098;2022-09-06T00:40:37;4.50;;;2.67;;
9789;SDS011;4934;50.852;8.098;2022-09-06T00:43:03;6.28;;;3.20;;
9789;SDS011;4934;50.852;8.098;2022-09-06T00:45:28;4.35;;;3.40;;
9789;SDS011;4934;50.852;8.098;2022-09-06T00:47:55;4.22;;;3.10;;
9789;SDS011;4934;50.852;8.098;2022-09-06T00:50:23;5.75;;;3.05;;
9789;SDS011;4934;50.852;8.098;2022-09-06T00:52:50;3.83;;;2.83;;
9789;SDS011;4934;50.852;8.098;2022-09-06T00:55:17;3.88;;;2.92;;
9789;SDS011;4934;50.852;8.098;2022-09-06T00:57:44;3.60;;;2.83;;
9789;SDS011;4934;50.852;8.098;2022-09-06T01:00:15;5.22;;;3.00;;
9789;SDS011;4934;50.852;8.098;2022-09-06T01:02:41;5.07;;;3.22;;
9789;SDS011;4934;50.852;8.098;2022-09-06T01:05:07;4.10;;;2.85;;
9789;SDS011;4934;50.852;8.098;2022-09-06T01:07:38;6.38;;;2.97;;
9789;SDS011;4934;50.852;8.098;2022-09-06T01:15:44;6.13;;;2.60;;
9789;SDS011;4934;50.852;8.098;2022-09-06T01:18:22;6.50;;;3.30;;
9789;SDS011;4934;50.852;8.098;2022-09-06T01:21:00;7.95;;;2.97;;
9789;SDS011;4934;50.852;8.098;2022-09-06T01:26:55;4.03;;;2.95;;
9789;SDS011;4934;50.852;8.098;2022-09-06T01:29:28;4.50;;;2.95;;
9789;SDS011;4934;50.852;8.098;2022-09-06T01:35:23;6.15;;;3.35;;
9789;SDS011;4934;50.852;8.098;2022-09-06T01:38:13;3.90;;;2.83;;
9789;SDS011;4934;50.852;8.098;2022-09-06T01:40:39;4.35;;;2.90;;
9789;SDS011;4934;50.852;8.098;2022-09-06T01:43:06;7.18;;;3.03;;
9789;SDS011;4934;50.852;8.098;2022-09-06T01:51:47;5.13;;;3.08;;
9789;SDS011;4934;50.852;8.098;2022-09-06T02:00:17;6.53;;;2.70;;
9789;SDS011;4934;50.852;8.098;2022-09-06T02:06:14;7.88;;;4.13;;
9789;SDS011;4934;50.852;8.098;2022-09-06T02:08:48;4.72;;;3.35;;
9789;SDS011;4934;50.852;8.098;2022-09-06T02:11:18;6.00;;;3.15;;
9789;SDS011;4934;50.852;8.098;2022-09-06T02:13:44;8.38;;;3.60;;
9789;SDS011;4934;50.852;8.098;2022-09-06T02:16:12;3.67;;;2.93;;
9789;SDS011;4934;50.852;8.098;2022-09-06T02:18:43;6.05;;;3.40;;
9789;SDS011;4934;50.852;8.098;2022-09-06T02:21:14;6.63;;;3.30;;
9789;SDS011;4934;50.852;8.098;2022-09-06T02:23:42;4.15;;;2.97;;
9789;SDS011;4934;50.852;8.098;2022-09-06T02:26:13;4.70;;;3.05;;
9789;SDS011;4934;50.852;8.098;2022-09-06T02:28:46;7.25;;;3.97;;
9789;SDS011;4934;50.852;8.098;2022-09-06T02:31:14;7.10;;;3.20;;
9789;SDS011;4934;50.852;8.098;2022-09-06T02:33:44;5.95;;;3.60;;
9789;SDS011;4934;50.852;8.098;2022-09-06T02:36:11;6.35;;;3.58;;
9789;SDS011;4934;50.852;8.098;2022-09-06T02:38:38;4.10;;;3.05;;
9789;SDS011;4934;50.852;8.098;2022-09-06T02:41:05;5.45;;;3.17;;
9789;SDS011;4934;50.852;8.098;2022-09-06T02:43:32;5.95;;;3.28;;
9789;SDS011;4934;50.852;8.098;2022-09-06T02:45:57;7.60;;;3.60;;
9789;SDS011;4934;50.852;8.098;2022-09-06T02:48:23;4.20;;;3.05;;
9789;SDS011;4934;50.852;8.098;2022-09-06T02:50:49;3.92;;;3.40;;
9789;SDS011;4934;50.852;8.098;2022-09-06T02:53:14;6.10;;;3.30;;
9789;SDS011;4934;50.852;8.098;2022-09-06T02:55:40;4.88;;;3.40;;
9789;SDS011;4934;50.852;8.098;2022-09-06T02:58:07;5.88;;;3.47;;
9789;SDS011;4934;50.852;8.098;2022-09-06T03:00:35;5.90;;;2.95;;
9789;SDS011;4934;50.852;8.098;2022-09-06T03:03:01;4.63;;;3.28;;
9789;SDS011;4934;50.852;8.098;2022-09-06T03:05:27;4.25;;;2.88;;
9789;SDS011;4934;50.852;8.098;2022-09-06T03:07:53;5.68;;;3.72;;
9789;SDS011;4934;50.852;8.098;2022-09-06T03:10:20;4.88;;;3.47;;
9789;SDS011;4934;50.852;8.098;2022-09-06T03:12:46;6.55;;;3.10;;
9789;SDS011;4934;50.852;8.098;2022-09-06T03:15:13;3.15;;;2.85;;
9789;SDS011;4934;50.852;8.098;2022-09-06T03:17:40;5.63;;;3.33;;
9789;SDS011;4934;50.852;8.098;2022-09-06T03:20:07;5.35;;;3.45;;
9789;SDS011;4934;50.852;8.098;2022-09-06T03:22:33;4.13;;;2.92;;
9789;SDS011;4934;50.852;8.098;2022-09-06T03:24:59;4.65;;;3.20;;
9789;SDS011;4934;50.852;8.098;2022-09-06T03:27:25;11.18;;;3.58;;
9789;SDS011;4934;50.852;8.098;2022-09-06T03:29:51;5.13;;;3.22;;
9789;SDS011;4934;50.852;8.098;2022-09-06T03:32:16;5.30;;;3.47;;
9789;SDS011;4934;50.852;8.098;2022-09-06T03:34:42;4.28;;;3.15;;
9789;SDS011;4934;50.852;8.098;2022-09-06T03:37:08;5.28;;;3.30;;
9789;SDS011;4934;50.852;8.098;2022-09-06T03:39:33;7.38;;;3.03;;
9789;SDS011;4934;50.852;8.098;2022-09-06T03:41:59;3.67;;;3.00;;
9789;SDS011;4934;50.852;8.098;2022-09-06T03:44:25;5.45;;;3.08;;
9789;SDS011;4934;50.852;8.098;2022-09-06T03:46:51;9.05;;;3.55;;
9789;SDS011;4934;50.852;8.098;2022-09-06T03:49:17;6.80;;;3.80;;
9789;SDS011;4934;50.852;8.098;2022-09-06T03:51:42;5.45;;;3.40;;
9789;SDS011;4934;50.852;8.098;2022-09-06T03:54:08;4.40;;;3.22;;
9789;SDS011;4934;50.852;8.098;2022-09-06T03:56:34;6.65;;;3.22;;
9789;SDS011;4934;50.852;8.098;2022-09-06T03:58:59;5.57;;;3.80;;
9789;SDS011;4934;50.852;8.098;2022-09-06T04:01:25;7.88;;;3.60;;
9789;SDS011;4934;50.852;8.098;2022-09-06T04:03:51;4.65;;;3.22;;
9789;SDS011;4934;50.852;8.098;2022-09-06T04:06:17;5.68;;;2.90;;
9789;SDS011;4934;50.852;8.098;2022-09-06T04:08:42;3.58;;;2.92;;
9789;SDS011;4934;50.852;8.098;2022-09-06T04:11:08;5.22;;;3.00;;
9789;SDS011;4934;50.852;8.098;2022-09-06T04:13:34;6.70;;;3.65;;
9789;SDS011;4934;50.852;8.098;2022-09-06T04:16:00;4.82;;;3.50;;
9789;SDS011;4934;50.852;8.098;2022-09-06T04:18:26;4.75;;;3.35;;
9789;SDS011;4934;50.852;8.098;2022-09-06T04:20:52;5.55;;;3.13;;
9789;SDS011;4934;50.852;8.098;2022-09-06T04:23:20;21.45;;;3.28;;
9789;SDS011;4934;50.852;8.098;2022-09-06T04:25:47;7.45;;;4.00;;
9789;SDS011;4934;50.852;8.098;2022-09-06T04:28:14;4.47;;;3.22;;
9789;SDS011;4934;50.852;8.098;2022-09-06T04:30:42;5.47;;;3.50;;
9789;SDS011;4934;50.852;8.098;2022-09-06T04:33:08;6.53;;;3.35;;
9789;SDS011;4934;50.852;8.098;2022-09-06T04:35:34;3.53;;;2.75;;
9789;SDS011;4934;50.852;8.098;2022-09-06T04:38:01;6.40;;;2.88;;
9789;SDS011;4934;50.852;8.098;2022-09-06T04:40:28;6.97;;;2.88;;
9789;SDS011;4934;50.852;8.098;2022-09-06T04:42:54;4.72;;;2.83;;
9789;SDS011;4934;50.852;8.098;2022-09-06T04:45:20;5.50;;;3.92;;
9789;SDS011;4934;50.852;8.098;2022-09-06T04:47:45;7.63;;;3.97;;
9789;SDS011;4934;50.852;8.098;2022-09-06T04:50:11;5.40;;;3.50;;
9789;SDS011;4934;50.852;8.098;2022-09-06T04:52:37;5.28;;;3.28;;
9789;SDS011;4934;50.852;8.098;2022-09-06T04:55:03;5.80;;;3.92;;
9789;SDS011;4934;50.852;8.098;2022-09-06T04:57:29;5.70;;;3.40;;
9789;SDS011;4934;50.852;8.098;2022-09-06T04:59:55;4.88;;;3.65;;
9789;SDS011;4934;50.852;8.098;2022-09-06T05:02:20;7.95;;;4.20;;
9789;SDS011;4934;50.852;8.098;2022-09-06T05:04:46;6.13;;;3.90;;
9789;SDS011;4934;50.852;8.098;2022-09-06T05:07:11;5.72;;;3.67;;
9789;SDS011;4934;50.852;8.098;2022-09-06T05:09:37;5.47;;;4.03;;
9789;SDS011;4934;50.852;8.098;2022-09-06T05:12:03;4.50;;;3.30;;
9789;SDS011;4934;50.852;8.098;2022-09-06T05:14:28;7.55;;;3.50;;
9789;SDS011;4934;50.852;8.098;2022-09-06T05:16:54;3.47;;;3.05;;
9789;SDS011;4934;50.852;8.098;2022-09-06T05:19:20;4.50;;;3.72;;
9789;SDS011;4934;50.852;8.098;2022-09-06T05:21:46;5.28;;;3.53;;
9789;SDS011;4934;50.852;8.098;2022-09-06T05:24:11;5.10;;;3.67;;
9789;SDS011;4934;50.852;8.098;2022-09-06T05:26:37;5.63;;;4.60;;
9789;SDS011;4934;50.852;8.098;2022-09-06T05:29:03;5.18;;;3.40;;
9789;SDS011;4934;50.852;8.098;2022-09-06T05:31:29;6.47;;;3.53;;
9789;SDS011;4934;50.852;8.098;2022-09-06T05:33:57;5.28;;;3.38;;
9789;SDS011;4934;50.852;8.098;2022-09-06T05:36:24;5.15;;;3.55;;
9789;SDS011;4934;50.852;8.098;2022-09-06T05:38:51;7.97;;;3.90;;
9789;SDS011;4934;50.852;8.098;2022-09-06T05:41:18;6.28;;;3.47;;
9789;SDS011;4934;50.852;8.098;2022-09-06T05:43:44;5.78;;;3.58;;
9789;SDS011;4934;50.852;8.098;2022-09-06T05:46:10;3.60;;;3.20;;
9789;SDS011;4934;50.852;8.098;2022-09-06T05:48:36;11.48;;;4.28;;
9789;SDS011;4934;50.852;8.098;2022-09-06T05:51:06;10.75;;;5.55;;
9789;SDS011;4934;50.852;8.098;2022-09-06T05:53:37;9.55;;;4.60;;
9789;SDS011;4934;50.852;8.098;2022-09-06T05:56:04;9.85;;;5.18;;
9789;SDS011;4934;50.852;8.098;2022-09-06T05:58:30;12.15;;;4.32;;
9789;SDS011;4934;50.852;8.098;2022-09-06T06:01:03;8.43;;;4.05;;
9789;SDS011;4934;50.852;8.098;2022-09-06T06:03:32;6.90;;;4.00;;
9789;SDS011;4934;50.852;8.098;2022-09-06T06:05:57;6.35;;;3.75;;
9789;SDS011;4934;50.852;8.098;2022-09-06T06:08:23;6.13;;;4.38;;
9789;SDS011;4934;50.852;8.098;2022-09-06T06:10:49;5.60;;;3.42;;
9789;SDS011;4934;50.852;8.098;2022-09-06T06:13:14;7.38;;;4.32;;
9789;SDS011;4934;50.852;8.098;2022-09-06T06:15:40;5.90;;;3.50;;
9789;SDS011;4934;50.852;8.098;2022-09-06T06:18:05;13.45;;;4.70;;
9789;SDS011;4934;50.852;8.098;2022-09-06T06:20:31;10.77;;;4.63;;
9789;SDS011;4934;50.852;8.098;2022-09-06T06:22:56;6.32;;;4.15;;
9789;SDS011;4934;50.852;8.098;2022-09-06T06:25:22;7.00;;;3.47;;
9789;SDS011;4934;50.852;8.098;2022-09-06T06:27:50;5.82;;;3.63;;
9789;SDS011;4934;50.852;8.098;2022-09-06T06:30:16;6.53;;;4.10;;
9789;SDS011;4934;50.852;8.098;2022-09-06T06:32:42;6.80;;;3.47;;
9789;SDS011;4934;50.852;8.098;2022-09-06T06:35:08;8.98;;;3.72;;
9789;SDS011;4934;50.852;8.098;2022-09-06T06:37:34;8.57;;;4.20;;
9789;SDS011;4934;50.852;8.098;2022-09-06T06:39:59;10.07;;;4.47;;
9789;SDS011;4934;50.852;8.098;2022-09-06T06:42:25;5.13;;;3.97;;
9789;SDS011;4934;50.852;8.098;2022-09-06T06:44:51;12.65;;;4.20;;
9789;SDS011;4934;50.852;8.098;2022-09-06T06:47:19;10.13;;;4.05;;
9789;SDS011;4934;50.852;8.098;2022-09-06T06:49:44;6.40;;;3.65;;
9789;SDS011;4934;50.852;8.098;2022-09-06T06:52:10;6.20;;;3.40;;
9789;SDS011;4934;50.852;8.098;2022-09-06T06:54:36;7.32;;;4.15;;
9789;SDS011;4934;50.852;8.098;2022-09-06T06:57:02;11.00;;;3.85;;
9789;SDS011;4934;50.852;8.098;2022-09-06T06:59:28;11.73;;;4.32;;
9789;SDS011;4934;50.852;8.098;2022-09-06T07:01:54;5.63;;;3.75;;
9789;SDS011;4934;50.852;8.098;2022-09-06T07:04:20;5.28;;;3.63;;
9789;SDS011;4934;50.852;8.098;2022-09-06T07:06:49;8.73;;;3.67;;
9789;SDS011;4934;50.852;8.098;2022-09-06T07:09:17;6.78;;;3.60;;
9789;SDS011;4934;50.852;8.098;2022-09-06T07:11:43;6.05;;;3.53;;
9789;SDS011;4934;50.852;8.098;2022-09-06T07:14:09;5.68;;;3.90;;
9789;SDS011;4934;50.852;8.098;2022-09-06T07:16:35;5.57;;;3.08;;
9789;SDS011;4934;50.852;8.098;2022-09-06T07:19:01;7.60;;;3.00;;
9789;SDS011;4934;50.852;8.098;2022-09-06T07:21:26;8.63;;;3.53;;
9789;SDS011;4934;50.852;8.098;2022-09-06T07:23:53;5.47;;;3.20;;
9789;SDS011;4934;50.852;8.098;2022-09-06T07:26:23;5.78;;;3.25;;
9789;SDS011;4934;50.852;8.098;2022-09-06T07:28:51;4.20;;;2.92;;
9789;SDS011;4934;50.852;8.098;2022-09-06T07:31:18;6.20;;;2.92;;
9789;SDS011;4934;50.852;8.098;2022-09-06T07:33:43;4.53;;;2.67;;
9789;SDS011;4934;50.852;8.098;2022-09-06T07:36:09;4.97;;;2.70;;
9789;SDS011;4934;50.852;8.098;2022-09-06T07:38:36;4.65;;;3.00;;
9789;SDS011;4934;50.852;8.098;2022-09-06T07:41:05;3.78;;;2.78;;
9789;SDS011;4934;50.852;8.098;2022-09-06T07:43:33;4.63;;;2.78;;
9789;SDS011;4934;50.852;8.098;2022-09-06T07:46:00;4.05;;;2.58;;
9789;SDS011;4934;50.852;8.098;2022-09-06T07:48:30;5.53;;;2.70;;
9789;SDS011;4934;50.852;8.098;2022-09-06T07:53:30;2.80;;;2.22;;
9789;SDS011;4934;50.852;8.098;2022-09-06T07:55:56;9.10;;;2.38;;
9789;SDS011;4934;50.852;8.098;2022-09-06T07:58:22;5.22;;;2.00;;
9789;SDS011;4934;50.852;8.098;2022-09-06T08:00:48;4.13;;;2.50;;
9789;SDS011;4934;50.852;8.098;2022-09-06T08:03:14;4.00;;;2.17;;
9789;SDS011;4934;50.852;8.098;2022-09-06T08:05:39;6.78;;;2.60;;
9789;SDS011;4934;50.852;8.098;2022-09-06T08:08:05;5.43;;;2.45;;
9789;SDS011;4934;50.852;8.098;2022-09-06T08:10:30;6.78;;;2.13;;
9789;SDS011;4934;50.852;8.098;2022-09-06T08:12:56;4.30;;;2.42;;
9789;SDS011;4934;50.852;8.098;2022-09-06T08:15:21;2.75;;;1.80;;
9789;SDS011;4934;50.852;8.098;2022-09-06T08:17:48;3.88;;;1.40;;
9789;SDS011;4934;50.852;8.098;2022-09-06T08:20:14;2.22;;;1.17;;
9789;SDS011;4934;50.852;8.098;2022-09-06T08:22:40;1.73;;;1.30;;
9789;SDS011;4934;50.852;8.098;2022-09-06T08:25:05;3.10;;;1.27;;
9789;SDS011;4934;50.852;8.098;2022-09-06T08:27:32;1.30;;;0.98;;
9789;SDS011;4934;50.852;8.098;2022-09-06T08:29:57;1.70;;;1.13;;
9789;SDS011;4934;50.852;8.098;2022-09-06T08:32:23;3.70;;;1.00;;
9789;SDS011;4934;50.852;8.098;2022-09-06T08:34:49;1.25;;;0.80;;
9789;SDS011;4934;50.852;8.098;2022-09-06T08:37:14;2.17;;;0.88;;
9789;SDS011;4934;50.852;8.098;2022-09-06T08:39:40;0.93;;;0.82;;
9789;SDS011;4934;50.852;8.098;2022-09-06T08:42:06;1.65;;;0.80;;
9789;SDS011;4934;50.852;8.098;2022-09-06T08:47:01;1.23;;;0.70;;
9789;SDS011;4934;50.852;8.098;2022-09-06T08:49:33;1.75;;;0.60;;
9789;SDS011;4934;50.852;8.098;2022-09-06T09:00:26;3.05;;;0.73;;
9789;SDS011;4934;50.852;8.098;2022-09-06T09:03:02;1.20;;;0.73;;
9789;SDS011;4934;50.852;8.098;2022-09-06T09:05:37;1.70;;;0.90;;
9789;SDS011;4934;50.852;8.098;2022-09-06T09:08:06;5.55;;;0.82;;
9789;SDS011;4934;50.852;8.098;2022-09-06T09:10:40;1.33;;;0.70;;
9789;SDS011;4934;50.852;8.098;2022-09-06T09:13:14;0.82;;;0.60;;
9789;SDS011;4934;50.852;8.098;2022-09-06T09:16:03;1.80;;;0.77;;
9789;SDS011;4934;50.852;8.098;2022-09-06T09:18:31;2.15;;;0.70;;
9789;SDS011;4934;50.852;8.098;2022-09-06T09:20:58;2.90;;;0.60;;
9789;SDS011;4934;50.852;8.098;2022-09-06T09:23:24;1.25;;;0.70;;
9789;SDS011;4934;50.852;8.098;2022-09-06T09:25:51;2.05;;;1.05;;
9789;SDS011;4934;50.852;8.098;2022-09-06T09:28:22;1.67;;;0.77;;
9789;SDS011;4934;50.852;8.098;2022-09-06T09:30:49;3.33;;;0.80;;
9789;SDS011;4934;50.852;8.098;2022-09-06T09:33:20;1.33;;;0.80;;
9789;SDS011;4934;50.852;8.098;2022-09-06T09:35:49;1.38;;;0.70;;
9789;SDS011;4934;50.852;8.098;2022-09-06T09:38:19;0.90;;;0.70;;
9789;SDS011;4934;50.852;8.098;2022-09-06T09:41:00;1.05;;;0.90;;
9789;SDS011;4934;50.852;8.098;2022-09-06T09:43:33;1.17;;;0.50;;
9789;SDS011;4934;50.852;8.098;2022-09-06T09:54:09;4.75;;;0.70;;
9789;SDS011;4934;50.852;8.098;2022-09-06T09:56:40;0.50;;;0.43;;
9789;SDS011;4934;50.852;8.098;2022-09-06T09:59:20;2.55;;;0.70;;
9789;SDS011;4934;50.852;8.098;2022-09-06T10:01:53;1.73;;;0.85;;
9789;SDS011;4934;50.852;8.098;2022-09-06T10:07:16;1.13;;;0.60;;
9789;SDS011;4934;50.852;8.098;2022-09-06T10:09:47;1.73;;;0.63;;
9789;SDS011;4934;50.852;8.098;2022-09-06T10:14:54;1.35;;;0.80;;
9789;SDS011;4934;50.852;8.098;2022-09-06T10:17:27;1.10;;;0.60;;
9789;SDS011;4934;50.852;8.098;2022-09-06T10:19:55;2.70;;;0.60;;
9789;SDS011;4934;50.852;8.098;2022-09-06T10:22:55;2.25;;;0.70;;
9789;SDS011;4934;50.852;8.098;2022-09-06T10:30:45;1.88;;;0.68;;
9789;SDS011;4934;50.852;8.098;2022-09-06T10:36:23;1.77;;;0.73;;
9789;SDS011;4934;50.852;8.098;2022-09-06T10:39:13;3.80;;;0.60;;
9789;SDS011;4934;50.852;8.098;2022-09-06T10:41:51;4.53;;;0.60;;
9789;SDS011;4934;50.852;8.098;2022-09-06T10:47:16;0.85;;;0.50;;
9789;SDS011;4934;50.852;8.098;2022-09-06T10:49:47;4.00;;;0.70;;
9789;SDS011;4934;50.852;8.098;2022-09-06T10:52:26;1.77;;;0.70;;
9789;SDS011;4934;50.852;8.098;2022-09-06T10:54:58;2.17;;;0.88;;
9789;SDS011;4934;50.852;8.098;2022-09-06T11:00:28;13.70;;;1.80;;
9789;SDS011;4934;50.852;8.098;2022-09-06T11:05:45;3.00;;;0.70;;
9789;SDS011;4934;50.852;8.098;2022-09-06T11:11:01;1.67;;;0.70;;
9789;SDS011;4934;50.852;8.098;2022-09-06T11:13:32;2.63;;;0.80;;
9789;SDS011;4934;50.852;8.098;2022-09-06T11:27:31;1.27;;;0.73;;
9789;SDS011;4934;50.852;8.098;2022-09-06T11:30:00;1.75;;;0.73;;
9789;SDS011;4934;50.852;8.098;2022-09-06T11:35:07;2.28;;;0.90;;
9789;SDS011;4934;50.852;8.098;2022-09-06T11:37:35;2.85;;;1.10;;
9789;SDS011;4934;50.852;8.098;2022-09-06T11:48:02;3.83;;;0.90;;
9789;SDS011;4934;50.852;8.098;2022-09-06T11:53:59;2.67;;;1.10;;
9789;SDS011;4934;50.852;8.098;2022-09-06T12:04:19;2.03;;;1.00;;
9789;SDS011;4934;50.852;8.098;2022-09-06T12:09:36;3.60;;;0.90;;
9789;SDS011;4934;50.852;8.098;2022-09-06T12:12:06;2.55;;;1.08;;
9789;SDS011;4934;50.852;8.098;2022-09-06T12:19:43;2.00;;;1.35;;
9789;SDS011;4934;50.852;8.098;2022-09-06T12:27:36;3.65;;;1.00;;
9789;SDS011;4934;50.852;8.098;2022-09-06T12:32:36;8.13;;;1.30;;
9789;SDS011;4934;50.852;8.098;2022-09-06T12:35:22;9.43;;;1.90;;
9789;SDS011;4934;50.852;8.098;2022-09-06T12:37:57;3.20;;;1.52;;
9789;SDS011;4934;50.852;8.098;2022-09-06T12:40:28;6.32;;;1.65;;
9789;SDS011;4934;50.852;8.098;2022-09-06T12:42:58;9.00;;;1.38;;
9789;SDS011;4934;50.852;8.098;2022-09-06T12:45:26;2.95;;;1.38;;
9789;SDS011;4934;50.852;8.098;2022-09-06T12:48:02;2.88;;;1.35;;
9789;SDS011;4934;50.852;8.098;2022-09-06T12:50:32;8.80;;;1.60;;
9789;SDS011;4934;50.852;8.098;2022-09-06T12:52:59;4.20;;;1.58;;
9789;SDS011;4934;50.852;8.098;2022-09-06T12:55:28;3.30;;;1.30;;
9789;SDS011;4934;50.852;8.098;2022-09-06T12:58:00;2.47;;;1.35;;
9789;SDS011;4934;50.852;8.098;2022-09-06T13:00:31;6.15;;;1.52;;
9789;SDS011;4934;50.852;8.098;2022-09-06T13:05:48;4.55;;;1.83;;
9789;SDS011;4934;50.852;8.098;2022-09-06T13:08:17;2.53;;;1.45;;
9789;SDS011;4934;50.852;8.098;2022-09-06T13:11:10;5.72;;;1.60;;
9789;SDS011;4934;50.852;8.098;2022-09-06T13:13:48;3.42;;;1.05;;
9789;SDS011;4934;50.852;8.098;2022-09-06T13:16:36;1.98;;;1.13;;
9789;SDS011;4934;50.852;8.098;2022-09-06T13:19:14;3.13;;;1.65;;
9789;SDS011;4934;50.852;8.098;2022-09-06T13:21:44;4.47;;;1.70;;
9789;SDS011;4934;50.852;8.098;2022-09-06T13:27:31;3.35;;;1.35;;
9789;SDS011;4934;50.852;8.098;2022-09-06T13:30:01;5.75;;;1.35;;
9789;SDS011;4934;50.852;8.098;2022-09-06T13:32:32;4.07;;;1.83;;
9789;SDS011;4934;50.852;8.098;2022-09-06T13:34:59;1.67;;;1.08;;
9789;SDS011;4934;50.852;8.098;2022-09-06T13:37:25;2.58;;;1.45;;
9789;SDS011;4934;50.852;8.098;2022-09-06T13:39:53;3.88;;;1.40;;
9789;SDS011;4934;50.852;8.098;2022-09-06T13:44:52;10.40;;;2.05;;
9789;SDS011;4934;50.852;8.098;2022-09-06T13:47:17;4.78;;;1.75;;
9789;SDS011;4934;50.852;8.098;2022-09-06T13:49:43;2.90;;;1.20;;
9789;SDS011;4934;50.852;8.098;2022-09-06T13:52:09;4.22;;;1.85;;
9789;SDS011;4934;50.852;8.098;2022-09-06T13:54:34;3.92;;;1.20;;
9789;SDS011;4934;50.852;8.098;2022-09-06T13:57:00;2.67;;;1.15;;
9789;SDS011;4934;50.852;8.098;2022-09-06T13:59:26;5.38;;;1.33;;
9789;SDS011;4934;50.852;8.098;2022-09-06T14:04:32;6.00;;;1.55;;
9789;SDS011;4934;50.852;8.098;2022-09-06T14:06:58;2.90;;;1.20;;
9789;SDS011;4934;50.852;8.098;2022-09-06T14:09:24;3.60;;;1.20;;
9789;SDS011;4934;50.852;8.098;2022-09-06T14:11:50;4.72;;;1.35;;
9789;SDS011;4934;50.852;8.098;2022-09-06T14:14:16;5.75;;;1.50;;
9789;SDS011;4934;50.852;8.098;2022-09-06T14:16:42;5.03;;;1.17;;
9789;SDS011;4934;50.852;8.098;2022-09-06T14:19:08;4.68;;;1.45;;
9789;SDS011;4934;50.852;8.098;2022-09-06T14:21:33;6.32;;;1.92;;
9789;SDS011;4934;50.852;8.098;2022-09-06T14:23:59;7.10;;;1.40;;
9789;SDS011;4934;50.852;8.098;2022-09-06T14:26:25;4.05;;;1.38;;
9789;SDS011;4934;50.852;8.098;2022-09-06T14:28:51;5.60;;;1.90;;
9789;SDS011;4934;50.852;8.098;2022-09-06T14:31:18;5.53;;;1.30;;
9789;SDS011;4934;50.852;8.098;2022-09-06T14:36:12;4.85;;;1.60;;
9789;SDS011;4934;50.852;8.098;2022-09-06T14:38:42;7.28;;;1.45;;
9789;SDS011;4934;50.852;8.098;2022-09-06T14:41:09;7.60;;;2.47;;
9789;SDS011;4934;50.852;8.098;2022-09-06T14:43:38;4.28;;;1.58;;
9789;SDS011;4934;50.852;8.098;2022-09-06T14:46:08;3.22;;;1.10;;
9789;SDS011;4934;50.852;8.098;2022-09-06T14:48:35;4.43;;;1.38;;
9789;SDS011;4934;50.852;8.098;2022-09-06T14:53:40;2.88;;;1.50;;
9789;SDS011;4934;50.852;8.098;2022-09-06T14:56:07;3.60;;;1.55;;
9789;SDS011;4934;50.852;8.098;2022-09-06T14:58:34;4.40;;;1.73;;
9789;SDS011;4934;50.852;8.098;2022-09-06T15:01:08;2.53;;;1.47;;
9789;SDS011;4934;50.852;8.098;2022-09-06T15:03:34;7.10;;;1.70;;
9789;SDS011;4934;50.852;8.098;2022-09-06T15:06:00;3.63;;;1.40;;
9789;SDS011;4934;50.852;8.098;2022-09-06T15:08:26;2.67;;;1.30;;
9789;SDS011;4934;50.852;8.098;2022-09-06T15:10:53;1.67;;;1.17;;
9789;SDS011;4934;50.852;8.098;2022-09-06T15:13:19;2.15;;;1.20;;
9789;SDS011;4934;50.852;8.098;2022-09-06T15:15:45;2.35;;;1.00;;
9789;SDS011;4934;50.852;8.098;2022-09-06T15:18:11;5.65;;;1.75;;
9789;SDS011;4934;50.852;8.098;2022-09-06T15:20:36;3.80;;;1.30;;
9789;SDS011;4934;50.852;8.098;2022-09-06T15:23:03;5.30;;;1.60;;
9789;SDS011;4934;50.852;8.098;2022-09-06T15:25:29;2.25;;;1.38;;
9789;SDS011;4934;50.852;8.098;2022-09-06T15:27:56;3.47;;;1.70;;
9789;SDS011;4934;50.852;8.098;2022-09-06T15:30:21;2.33;;;1.15;;
9789;SDS011;4934;50.852;8.098;2022-09-06T15:32:47;4.22;;;1.90;;
9789;SDS011;4934;50.852;8.098;2022-09-06T15:35:13;4.25;;;1.35;;
9789;SDS011;4934;50.852;8.098;2022-09-06T15:37:39;3.35;;;1.48;;
9789;SDS011;4934;50.852;8.098;2022-09-06T15:40:04;6.50;;;1.60;;
9789;SDS011;4934;50.852;8.098;2022-09-06T15:42:30;2.20;;;1.40;;
9789;SDS011;4934;50.852;8.098;2022-09-06T15:44:56;4.10;;;0.93;;
9789;SDS011;4934;50.852;8.098;2022-09-06T15:47:22;4.07;;;1.30;;
9789;SDS011;4934;50.852;8.098;2022-09-06T15:49:47;1.55;;;1.08;;
9789;SDS011;4934;50.852;8.098;2022-09-06T15:52:13;2.10;;;1.33;;
9789;SDS011;4934;50.852;8.098;2022-09-06T15:54:38;8.90;;;1.60;;
9789;SDS011;4934;50.852;8.098;2022-09-06T15:57:22;4.97;;;1.50;;
9789;SDS011;4934;50.852;8.098;2022-09-06T15:59:48;4.45;;;1.15;;
9789;SDS011;4934;50.852;8.098;2022-09-06T16:02:14;4.22;;;1.33;;
9789;SDS011;4934;50.852;8.098;2022-09-06T16:04:40;3.47;;;1.17;;
9789;SDS011;4934;50.852;8.098;2022-09-06T16:07:05;7.50;;;1.60;;
9789;SDS011;4934;50.852;8.098;2022-09-06T16:09:31;3.47;;;1.70;;
9789;SDS011;4934;50.852;8.098;2022-09-06T16:11:57;2.30;;;1.38;;
9789;SDS011;4934;50.852;8.098;2022-09-06T16:14:22;3.45;;;1.20;;
9789;SDS011;4934;50.852;8.098;2022-09-06T16:16:49;2.45;;;1.27;;
9789;SDS011;4934;50.852;8.098;2022-09-06T16:19:16;3.72;;;1.60;;
9789;SDS011;4934;50.852;8.098;2022-09-06T16:21:41;2.80;;;1.67;;
9789;SDS011;4934;50.852;8.098;2022-09-06T16:24:08;3.22;;;1.50;;
9789;SDS011;4934;50.852;8.098;2022-09-06T16:26:36;2.00;;;1.17;;
9789;SDS011;4934;50.852;8.098;2022-09-06T16:31:30;3.80;;;1.30;;
9789;SDS011;4934;50.852;8.098;2022-09-06T16:33:57;3.78;;;1.45;;
9789;SDS011;4934;50.852;8.098;2022-09-06T16:36:24;1.75;;;1.15;;
9789;SDS011;4934;50.852;8.098;2022-09-06T16:38:50;3.72;;;1.88;;
9789;SDS011;4934;50.852;8.098;2022-09-06T16:43:43;8.65;;;1.58;;
9789;SDS011;4934;50.852;8.098;2022-09-06T16:46:10;3.83;;;1.38;;
9789;SDS011;4934;50.852;8.098;2022-09-06T16:48:37;2.90;;;1.45;;
9789;SDS011;4934;50.852;8.098;2022-09-06T16:51:08;2.22;;;1.10;;
9789;SDS011;4934;50.852;8.098;2022-09-06T16:53:38;3.00;;;1.45;;
9789;SDS011;4934;50.852;8.098;2022-09-06T16:56:05;2.43;;;1.40;;
9789;SDS011;4934;50.852;8.098;2022-09-06T16:58:31;3.97;;;1.00;;
9789;SDS011;4934;50.852;8.098;2022-09-06T17:00:57;2.72;;;1.38;;
9789;SDS011;4934;50.852;8.098;2022-09-06T17:03:23;2.17;;;1.38;;
9789;SDS011;4934;50.852;8.098;2022-09-06T17:05:49;3.75;;;1.52;;
9789;SDS011;4934;50.852;8.098;2022-09-06T17:08:16;5.15;;;2.03;;
9789;SDS011;4934;50.852;8.098;2022-09-06T17:10:41;4.28;;;1.80;;
9789;SDS011;4934;50.852;8.098;2022-09-06T17:13:08;6.63;;;1.33;;
9789;SDS011;4934;50.852;8.098;2022-09-06T17:15:34;3.50;;;1.10;;
9789;SDS011;4934;50.852;8.098;2022-09-06T17:18:18;4.82;;;1.10;;
9789;SDS011;4934;50.852;8.098;2022-09-06T17:20:58;2.03;;;1.33;;
9789;SDS011;4934;50.852;8.098;2022-09-06T17:23:26;5.45;;;1.45;;
9789;SDS011;4934;50.852;8.098;2022-09-06T17:25:52;4.82;;;1.00;;
9789;SDS011;4934;50.852;8.098;2022-09-06T17:28:18;3.45;;;1.33;;
9789;SDS011;4934;50.852;8.098;2022-09-06T17:30:44;4.05;;;1.27;;
9789;SDS011;4934;50.852;8.098;2022-09-06T17:33:09;4.25;;;1.40;;
9789;SDS011;4934;50.852;8.098;2022-09-06T17:35:37;4.22;;;1.40;;
9789;SDS011;4934;50.852;8.098;2022-09-06T17:38:03;2.10;;;1.10;;
9789;SDS011;4934;50.852;8.098;2022-09-06T17:40:28;3.13;;;1.20;;
9789;SDS011;4934;50.852;8.098;2022-09-06T17:42:54;2.67;;;1.55;;
9789;SDS011;4934;50.852;8.098;2022-09-06T17:45:20;6.65;;;1.25;;